sensor_id;sensor_type;location;lat;lon;timestamp;pressure;altitude;pressure_sealevel;temperature;humidity
43430;BME280;29028;43.234;27.896;2022-12-10T05:01:40;99424.53;;;14.69;100.00
43430;BME280;29028;43.234;27.896;2022-12-10T05:02:02;99426.19;;;14.70;100.00
43430;BME280;29028;43.234;27.896;2022-12-10T05:02:23;99420.41;;;14.66;100.00
43430;BME280;29028;43.234;27.896;2022-12-10T05:02:43;99420.91;;;14.63;100.00
43430;BME280;29028;43.234;27.896;2022-12-10T05:03:04;99426.91;;;14.65;100.00
43430;BME280;29028;43.234;27.896;2022-12-10T05:03:25;99423.47;;;14.70;100.00
43430;BME280;29028;43.234;27.896;2022-12-10T05:03:47;99431.88;;;14.68;100.00
43430;BME280;29028;43.234;27.896;2022-12-10T05:04:10;99417.34;;;14.63;100.00
43430;BME280;29028;43.234;27.896;2022-12-10T05:04:31;99425.59;;;14.68;100.00
43430;BME280;29028;43.234;27.896;2022-12-10T05:04:52;99432.31;;;14.65;100.00
43430;BME280;29028;43.234;27.896;2022-12-10T05:05:14;99419.34;;;14.67;100.00
43430;BME280;29028;43.234;27.896;2022-12-10T05:05:34;99428.31;;;14.68;100.00
43430;BME280;29028;43.234;27.896;2022-12-10T05:05:55;99431.25;;;14.66;100.00
43430;BME280;29028;43.234;27.896;2022-12-10T05:06:17;99424.41;;;14.64;100.00
43430;BME280;29028;43.234;27.896;2022-12-10T05:06:39;99427.75;;;14.66;100.00
43430;BME280;29028;43.234;27.896;2022-12-10T05:07:00;99424.69;;;14.62;100.00
43430;BME280;29028;43.234;27.896;2022-12-10T05:07:22;99417.47;;;14.56;100.00
43430;BME280;29028;43.234;27.896;2022-12-10T05:07:43;99424.41;;;14.64;100.00
43430;BME280;29028;43.234;27.896;2022-12-10T05:08:04;99426.91;;;14.65;100.00
43430;BME280;29028;43.234;27.896;2022-12-10T05:08:24;99434.44;;;14.63;100.00
43430;BME280;29028;43.234;27.896;2022-12-10T05:08:46;99431.88;;;14.68;100.00
43430;BME280;29028;43.234;27.896;2022-12-10T05:09:09;99424.41;;;14.64;100.00
43430;BME280;29028;43.234;27.896;2022-12-10T05:09:30;99426.91;;;14.65;100.00
43430;BME280;29028;43.234;27.896;2022-12-10T05:09:51;99421.47;;;14.65;100.00
43430;BME280;29028;43.234;27.896;2022-12-10T05:10:13;99420.28;;;14.61;100.00
43430;BME280;29028;43.234;27.896;2022-12-10T05:10:34;99424.41;;;14.64;100.00
43430;BME280;29028;43.234;27.896;2022-12-10T05:10:55;99419.94;;;14.58;100.00
43430;BME280;29028;43.234;27.896;2022-12-10T05:11:17;99429.13;;;14.57;100.00
43430;BME280;29028;43.234;27.896;2022-12-10T05:11:39;99429.34;;;14.55;100.00
43430;BME280;29028;43.234;27.896;2022-12-10T05:12:02;99427.72;;;14.54;100.00
43430;BME280;29028;43.234;27.896;2022-12-10T05:12:23;99427.50;;;14.56;100.00
43430;BME280;29028;43.234;27.896;2022-12-10T05:12:44;99433.50;;;14.58;100.00
43430;BME280;29028;43.234;27.896;2022-12-10T05:13:04;99427.63;;;14.61;100.00
43430;BME280;29028;43.234;27.896;2022-12-10T05:13:26;99441.84;;;14.56;100.00
43430;BME280;29028;43.234;27.896;2022-12-10T05:13:47;99429.25;;;14.62;100.00
43430;BME280;29028;43.234;27.896;2022-12-10T05:14:10;99422.75;;;14.51;100.00
43430;BME280;29028;43.234;27.896;2022-12-10T05:14:31;99429.25;;;14.62;100.00
43430;BME280;29028;43.234;27.896;2022-12-10T05:14:53;99432.91;;;14.56;100.00
43430;BME280;29028;43.234;27.896;2022-12-10T05:15:13;99432.41;;;14.59;100.00
43430;BME280;29028;43.234;27.896;2022-12-10T05:15:37;99421.09;;;14.50;100.00
43430;BME280;29028;43.234;27.896;2022-12-10T05:15:59;99434.41;;;14.52;100.00
43430;BME280;29028;43.234;27.896;2022-12-10T05:16:22;99441.25;;;14.54;100.00
43430;BME280;29028;43.234;27.896;2022-12-10T05:16:48;99434.19;;;14.53;100.00
43430;BME280;29028;43.234;27.896;2022-12-10T05:17:10;99446.09;;;14.52;100.00
43430;BME280;29028;43.234;27.896;2022-12-10T05:17:30;99439.38;;;14.55;100.00
43430;BME280;29028;43.234;27.896;2022-12-10T05:17:52;99436.41;;;14.56;100.00
43430;BME280;29028;43.234;27.896;2022-12-10T05:18:14;99442.56;;;14.52;100.00
43430;BME280;29028;43.234;27.896;2022-12-10T05:18:36;99440.69;;;14.52;100.00
43430;BME280;29028;43.234;27.896;2022-12-10T05:18:57;99437.34;;;14.50;100.00
43430;BME280;29028;43.234;27.896;2022-12-10T05:19:19;99436.19;;;14.46;100.00
43430;BME280;29028;43.234;27.896;2022-12-10T05:19:42;99441.34;;;14.48;100.00
43430;BME280;29028;43.234;27.896;2022-12-10T05:20:03;99434.28;;;14.47;100.00
43430;BME280;29028;43.234;27.896;2022-12-10T05:20:24;99437.84;;;14.47;100.00
43430;BME280;29028;43.234;27.896;2022-12-10T05:20:45;99432.44;;;14.47;100.00
43430;BME280;29028;43.234;27.896;2022-12-10T05:21:07;99437.63;;;14.49;100.00
43430;BME280;29028;43.234;27.896;2022-12-10T05:21:30;99433.59;;;14.51;100.00
43430;BME280;29028;43.234;27.896;2022-12-10T05:22:05;99431.47;;;14.42;100.00
43430;BME280;29028;43.234;27.896;2022-12-10T05:22:44;99438.91;;;14.46;100.00
43430;BME280;29028;43.234;27.896;2022-12-10T05:23:24;99441.13;;;14.38;100.00
43430;BME280;29028;43.234;27.896;2022-12-10T05:23:50;99424.75;;;14.33;100.00
43430;BME280;29028;43.234;27.896;2022-12-10T05:24:11;99443.56;;;14.39;100.00
43430;BME280;29028;43.234;27.896;2022-12-10T05:24:32;99440.28;;;14.37;100.00
43430;BME280;29028;43.234;27.896;2022-12-10T05:24:53;99441.13;;;14.38;100.00
43430;BME280;29028;43.234;27.896;2022-12-10T05:25:15;99439.94;;;14.34;100.00
43430;BME280;29028;43.234;27.896;2022-12-10T05:25:36;99442.41;;;14.35;100.00
43430;BME280;29028;43.234;27.896;2022-12-10T05:26:14;99438.88;;;14.35;100.00
43430;BME280;29028;43.234;27.896;2022-12-10T05:26:36;99445.34;;;14.34;100.00
43430;BME280;29028;43.234;27.896;2022-12-10T05:26:57;99440.75;;;14.34;100.00
43430;BME280;29028;43.234;27.896;2022-12-10T05:27:18;99444.88;;;14.37;100.00
43430;BME280;29028;43.234;27.896;2022-12-10T05:27:39;99443.84;;;14.38;100.00
43430;BME280;29028;43.234;27.896;2022-12-10T05:28:00;99441.94;;;14.38;100.00
43430;BME280;29028;43.234;27.896;2022-12-10T05:28:21;99437.09;;;14.40;100.00
43430;BME280;29028;43.234;27.896;2022-12-10T05:28:44;99449.84;;;14.40;100.00
43430;BME280;29028;43.234;27.896;2022-12-10T05:29:06;99440.06;;;14.39;100.00
43430;BME280;29028;43.234;27.896;2022-12-10T05:29:27;99447.56;;;14.37;100.00
43430;BME280;29028;43.234;27.896;2022-12-10T05:29:47;99444.28;;;14.35;100.00
43430;BME280;29028;43.234;27.896;2022-12-10T05:30:09;99449.13;;;14.33;100.00
43430;BME280;29028;43.234;27.896;2022-12-10T05:30:34;99445.34;;;14.34;100.00
43430;BME280;29028;43.234;27.896;2022-12-10T05:30:55;99440.06;;;14.39;100.00
43430;BME280;29028;43.234;27.896;2022-12-10T05:31:18;99440.06;;;14.39;100.00
43430;BME280;29028;43.234;27.896;2022-12-10T05:31:39;99440.88;;;14.39;100.00
43430;BME280;29028;43.234;27.896;2022-12-10T05:32:02;99440.41;;;14.42;100.00
43430;BME280;29028;43.234;27.896;2022-12-10T05:32:24;99443.03;;;14.49;100.00
43430;BME280;29028;43.234;27.896;2022-12-10T05:32:45;99437.63;;;14.49;100.00
43430;BME280;29028;43.234;27.896;2022-12-10T05:33:05;99444.19;;;14.53;100.00
43430;BME280;29028;43.234;27.896;2022-12-10T05:33:27;99443.53;;;14.57;100.00
43430;BME280;29028;43.234;27.896;2022-12-10T05:33:48;99433.00;;;14.49;100.00
43430;BME280;29028;43.234;27.896;2022-12-10T05:34:11;99441.84;;;14.56;100.00
43430;BME280;29028;43.234;27.896;2022-12-10T05:34:32;99435.38;;;14.57;100.00
43430;BME280;29028;43.234;27.896;2022-12-10T05:34:52;99439.88;;;14.63;100.00
43430;BME280;29028;43.234;27.896;2022-12-10T05:35:13;99442.44;;;14.58;100.00
43430;BME280;29028;43.234;27.896;2022-12-10T05:35:34;99437.25;;;14.57;100.00
43430;BME280;29028;43.234;27.896;2022-12-10T05:35:58;99437.25;;;14.57;100.00
43430;BME280;29028;43.234;27.896;2022-12-10T05:36:20;99437.97;;;14.52;100.00
43430;BME280;29028;43.234;27.896;2022-12-10T05:36:41;99436.41;;;14.45;100.00
43430;BME280;29028;43.234;27.896;2022-12-10T05:37:02;99443.72;;;14.44;100.00
43430;BME280;29028;43.234;27.896;2022-12-10T05:37:24;99438.16;;;14.39;100.00
43430;BME280;29028;43.234;27.896;2022-12-10T05:37:45;99438.91;;;14.46;100.00
43430;BME280;29028;43.234;27.896;2022-12-10T05:38:06;99440.31;;;14.49;100.00
43430;BME280;29028;43.234;27.896;2022-12-10T05:38:28;99436.56;;;14.50;100.00
43430;BME280;29028;43.234;27.896;2022-12-10T05:38:50;99434.28;;;14.47;100.00
43430;BME280;29028;43.234;27.896;2022-12-10T05:39:12;99436.88;;;14.42;100.00
43430;BME280;29028;43.234;27.896;2022-12-10T05:39:33;99433.34;;;14.41;100.00
43430;BME280;29028;43.234;27.896;2022-12-10T05:39:54;99432.16;;;14.37;100.00
43430;BME280;29028;43.234;27.896;2022-12-10T05:40:15;99437.09;;;14.40;100.00
43430;BME280;29028;43.234;27.896;2022-12-10T05:40:36;99438.16;;;14.39;100.00
43430;BME280;29028;43.234;27.896;2022-12-10T05:41:00;99433.94;;;14.43;100.00
43430;BME280;29028;43.234;27.896;2022-12-10T05:41:24;99419.47;;;14.38;100.00
43430;BME280;29028;43.234;27.896;2022-12-10T05:41:45;99429.34;;;14.44;100.00
43430;BME280;29028;43.234;27.896;2022-12-10T05:42:06;99430.66;;;14.41;100.00
43430;BME280;29028;43.234;27.896;2022-12-10T05:42:27;99431.47;;;14.42;100.00
43430;BME280;29028;43.234;27.896;2022-12-10T05:42:48;99432.75;;;14.39;100.00
43430;BME280;29028;43.234;27.896;2022-12-10T05:43:10;99437.34;;;14.39;100.00
43430;BME280;29028;43.234;27.896;2022-12-10T05:43:31;99430.75;;;14.35;100.00
43430;BME280;29028;43.234;27.896;2022-12-10T05:43:53;99432.75;;;14.28;100.00
43430;BME280;29028;43.234;27.896;2022-12-10T05:44:14;99436.88;;;14.30;100.00
43430;BME280;29028;43.234;27.896;2022-12-10T05:44:35;99439.31;;;14.32;100.00
43430;BME280;29028;43.234;27.896;2022-12-10T05:44:57;99437.81;;;14.36;100.00
43430;BME280;29028;43.234;27.896;2022-12-10T05:45:18;99442.88;;;14.32;100.00
43430;BME280;29028;43.234;27.896;2022-12-10T05:45:39;99438.50;;;14.31;100.00
43430;BME280;29028;43.234;27.896;2022-12-10T05:46:00;99437.09;;;14.29;100.00
43430;BME280;29028;43.234;27.896;2022-12-10T05:46:22;99438.97;;;14.28;100.00
43430;BME280;29028;43.234;27.896;2022-12-10T05:46:44;99437.69;;;14.31;100.00
43430;BME280;29028;43.234;27.896;2022-12-10T05:47:07;99434.16;;;14.30;100.00
43430;BME280;29028;43.234;27.896;2022-12-10T05:47:27;99436.88;;;14.30;100.00
43430;BME280;29028;43.234;27.896;2022-12-10T05:47:48;99440.03;;;14.27;100.00
43430;BME280;29028;43.234;27.896;2022-12-10T05:48:09;99441.91;;;14.27;100.00
43430;BME280;29028;43.234;27.896;2022-12-10T05:48:33;99440.16;;;14.32;100.00
43430;BME280;29028;43.234;27.896;2022-12-10T05:48:55;99435.09;;;14.24;100.00
43430;BME280;29028;43.234;27.896;2022-12-10T05:49:16;99448.28;;;14.32;100.00
43430;BME280;29028;43.234;27.896;2022-12-10T05:49:37;99433.91;;;14.32;100.00
43430;BME280;29028;43.234;27.896;2022-12-10T05:49:58;99440.16;;;14.32;100.00
43430;BME280;29028;43.234;27.896;2022-12-10T05:50:19;99444.38;;;14.28;100.00
43430;BME280;29028;43.234;27.896;2022-12-10T05:50:41;99437.69;;;14.31;100.00
43430;BME280;29028;43.234;27.896;2022-12-10T05:51:03;99444.28;;;14.35;100.00
43430;BME280;29028;43.234;27.896;2022-12-10T05:51:26;99440.38;;;14.31;100.00
43430;BME280;29028;43.234;27.896;2022-12-10T05:51:47;99449.34;;;14.31;100.00
43430;BME280;29028;43.234;27.896;2022-12-10T05:52:09;99453.69;;;14.32;100.00
43430;BME280;29028;43.234;27.896;2022-12-10T05:52:30;99445.00;;;14.30;100.00
43430;BME280;29028;43.234;27.896;2022-12-10T05:52:51;99434.28;;;14.35;100.00
43430;BME280;29028;43.234;27.896;2022-12-10T05:53:11;99447.84;;;14.35;100.00
43430;BME280;29028;43.234;27.896;2022-12-10T05:53:34;99440.50;;;14.36;100.00
43430;BME280;29028;43.234;27.896;2022-12-10T05:53:58;99443.84;;;14.38;100.00
43430;BME280;29028;43.234;27.896;2022-12-10T05:54:19;99451.47;;;14.41;100.00
43430;BME280;29028;43.234;27.896;2022-12-10T05:54:40;99446.06;;;14.41;100.00
43430;BME280;29028;43.234;27.896;2022-12-10T05:55:01;99448.41;;;14.37;100.00
43430;BME280;29028;43.234;27.896;2022-12-10T05:55:22;99451.97;;;14.38;100.00
43430;BME280;29028;43.234;27.896;2022-12-10T05:55:43;99448.19;;;14.39;100.00
43430;BME280;29028;43.234;27.896;2022-12-10T05:56:06;99456.75;;;14.36;100.00
43430;BME280;29028;43.234;27.896;2022-12-10T05:56:29;99455.69;;;14.37;100.00
43430;BME280;29028;43.234;27.896;2022-12-10T05:56:50;99452.78;;;14.38;100.00
43430;BME280;29028;43.234;27.896;2022-12-10T05:57:11;99448.41;;;14.37;100.00
43430;BME280;29028;43.234;27.896;2022-12-10T05:57:31;99452.63;;;14.33;100.00
43430;BME280;29028;43.234;27.896;2022-12-10T05:57:52;99449.00;;;14.39;100.00
43430;BME280;29028;43.234;27.896;2022-12-10T05:58:14;99454.06;;;14.36;100.00
43430;BME280;29028;43.234;27.896;2022-12-10T05:58:35;99451.34;;;14.36;100.00
43430;BME280;29028;43.234;27.896;2022-12-10T05:58:58;99447.94;;;14.40;100.00
43430;BME280;29028;43.234;27.896;2022-12-10T05:59:20;99456.31;;;14.39;100.00
43430;BME280;29028;43.234;27.896;2022-12-10T05:59:42;99446.16;;;14.34;100.00
43430;BME280;29028;43.234;27.896;2022-12-10T06:00:04;99449.69;;;14.35;100.00
43430;BME280;29028;43.234;27.896;2022-12-10T06:00:25;99464.44;;;14.39;100.00
43430;BME280;29028;43.234;27.896;2022-12-10T06:00:46;99455.13;;;14.35;100.00
43430;BME280;29028;43.234;27.896;2022-12-10T06:01:08;99457.13;;;14.39;100.00
43430;BME280;29028;43.234;27.896;2022-12-10T06:01:31;99452.31;;;14.41;100.00
43430;BME280;29028;43.234;27.896;2022-12-10T06:01:53;99451.47;;;14.41;100.00
43430;BME280;29028;43.234;27.896;2022-12-10T06:02:16;99456.06;;;14.40;100.00
43430;BME280;29028;43.234;27.896;2022-12-10T06:02:36;99447.94;;;14.40;100.00
43430;BME280;29028;43.234;27.896;2022-12-10T06:02:57;99452.19;;;14.36;100.00
43430;BME280;29028;43.234;27.896;2022-12-10T06:03:18;99452.63;;;14.33;100.00
43430;BME280;29028;43.234;27.896;2022-12-10T06:03:39;99441.00;;;14.33;100.00
43430;BME280;29028;43.234;27.896;2022-12-10T06:04:00;99446.78;;;14.36;100.00
43430;BME280;29028;43.234;27.896;2022-12-10T06:04:23;99447.00;;;14.35;100.00
43430;BME280;29028;43.234;27.896;2022-12-10T06:04:45;99439.34;;;14.43;100.00
43430;BME280;29028;43.234;27.896;2022-12-10T06:05:06;99450.19;;;14.43;100.00
43430;BME280;29028;43.234;27.896;2022-12-10T06:05:27;99445.75;;;14.49;100.00
43430;BME280;29028;43.234;27.896;2022-12-10T06:05:49;99450.31;;;14.48;100.00
43430;BME280;29028;43.234;27.896;2022-12-10T06:06:10;99447.63;;;14.48;100.00
43430;BME280;29028;43.234;27.896;2022-12-10T06:06:32;99444.78;;;14.43;100.00
43430;BME280;29028;43.234;27.896;2022-12-10T06:06:53;99439.72;;;14.47;100.00
43430;BME280;29028;43.234;27.896;2022-12-10T06:07:15;99442.41;;;14.47;100.00
43430;BME280;29028;43.234;27.896;2022-12-10T06:07:36;99449.13;;;14.44;100.00
43430;BME280;29028;43.234;27.896;2022-12-10T06:07:57;99446.56;;;14.49;100.00
43430;BME280;29028;43.234;27.896;2022-12-10T06:08:18;99448.19;;;14.50;100.00
43430;BME280;29028;43.234;27.896;2022-12-10T06:08:39;99430.38;;;14.43;100.00
43430;BME280;29028;43.234;27.896;2022-12-10T06:09:00;99440.78;;;14.46;100.00
43430;BME280;29028;43.234;27.896;2022-12-10T06:09:22;99441.50;;;14.53;100.00
43430;BME280;29028;43.234;27.896;2022-12-10T06:09:43;99447.53;;;14.55;100.00
43430;BME280;29028;43.234;27.896;2022-12-10T06:10:04;99445.84;;;14.54;100.00
43430;BME280;29028;43.234;27.896;2022-12-10T06:10:25;99446.91;;;14.53;100.00
43430;BME280;29028;43.234;27.896;2022-12-10T06:10:46;99444.19;;;14.53;100.00
43430;BME280;29028;43.234;27.896;2022-12-10T06:11:09;99444.31;;;14.46;100.00
43430;BME280;29028;43.234;27.896;2022-12-10T06:11:31;99446.78;;;14.48;100.00
43430;BME280;29028;43.234;27.896;2022-12-10T06:11:52;99442.19;;;14.48;100.00
43430;BME280;29028;43.234;27.896;2022-12-10T06:12:12;99443.84;;;14.49;100.00
43430;BME280;29028;43.234;27.896;2022-12-10T06:12:33;99443.88;;;14.61;100.00
43430;BME280;29028;43.234;27.896;2022-12-10T06:12:55;99442.91;;;14.55;100.00
43430;BME280;29028;43.234;27.896;2022-12-10T06:13:16;99444.69;;;14.50;100.00
43430;BME280;29028;43.234;27.896;2022-12-10T06:13:37;99443.03;;;14.49;100.00
43430;BME280;29028;43.234;27.896;2022-12-10T06:13:58;99448.69;;;14.47;100.00
43430;BME280;29028;43.234;27.896;2022-12-10T06:14:21;99443.63;;;14.51;100.00
43430;BME280;29028;43.234;27.896;2022-12-10T06:14:43;99443.03;;;14.49;100.00
43430;BME280;29028;43.234;27.896;2022-12-10T06:15:05;99441.63;;;14.46;100.00
43430;BME280;29028;43.234;27.896;2022-12-10T06:15:26;99448.06;;;14.45;100.00
43430;BME280;29028;43.234;27.896;2022-12-10T06:15:47;99440.41;;;14.42;100.00
43430;BME280;29028;43.234;27.896;2022-12-10T06:16:09;99444.06;;;14.36;100.00
43430;BME280;29028;43.234;27.896;2022-12-10T06:16:31;99451.47;;;14.41;100.00
43430;BME280;29028;43.234;27.896;2022-12-10T06:16:52;99449.84;;;14.40;100.00
43430;BME280;29028;43.234;27.896;2022-12-10T06:17:13;99442.41;;;14.35;100.00
43430;BME280;29028;43.234;27.896;2022-12-10T06:17:35;99447.13;;;14.40;100.00
43430;BME280;29028;43.234;27.896;2022-12-10T06:17:57;99441.34;;;14.48;100.00
43430;BME280;29028;43.234;27.896;2022-12-10T06:18:18;99448.44;;;14.49;100.00
43430;BME280;29028;43.234;27.896;2022-12-10T06:18:39;99451.38;;;14.47;100.00
43430;BME280;29028;43.234;27.896;2022-12-10T06:19:01;99449.47;;;14.48;100.00
43430;BME280;29028;43.234;27.896;2022-12-10T06:19:23;99454.44;;;14.51;100.00
43430;BME280;29028;43.234;27.896;2022-12-10T06:19:45;99455.50;;;14.61;100.00
43430;BME280;29028;43.234;27.896;2022-12-10T06:20:07;99448.94;;;14.57;100.00
43430;BME280;29028;43.234;27.896;2022-12-10T06:20:28;99443.25;;;14.59;100.00
43430;BME280;29028;43.234;27.896;2022-12-10T06:20:49;99451.16;;;14.60;100.00
43430;BME280;29028;43.234;27.896;2022-12-10T06:21:13;99443.88;;;14.61;100.00
43430;BME280;29028;43.234;27.896;2022-12-10T06:21:34;99443.03;;;14.60;100.00
43430;BME280;29028;43.234;27.896;2022-12-10T06:21:55;99438.31;;;14.67;100.00
43430;BME280;29028;43.234;27.896;2022-12-10T06:22:18;99451.88;;;14.67;100.00
43430;BME280;29028;43.234;27.896;2022-12-10T06:22:39;99446.94;;;14.64;100.00
43430;BME280;29028;43.234;27.896;2022-12-10T06:23:00;99446.94;;;14.64;100.00
43430;BME280;29028;43.234;27.896;2022-12-10T06:23:20;99448.00;;;14.63;100.00
43430;BME280;29028;43.234;27.896;2022-12-10T06:23:42;99437.63;;;14.60;100.00
43430;BME280;29028;43.234;27.896;2022-12-10T06:24:04;99448.81;;;14.64;100.00
43430;BME280;29028;43.234;27.896;2022-12-10T06:24:25;99449.66;;;14.64;100.00
43430;BME280;29028;43.234;27.896;2022-12-10T06:24:46;99445.66;;;14.67;100.00
43430;BME280;29028;43.234;27.896;2022-12-10T06:25:07;99440.31;;;14.60;100.00
43430;BME280;29028;43.234;27.896;2022-12-10T06:25:29;99448.56;;;14.65;100.00
43430;BME280;29028;43.234;27.896;2022-12-10T06:25:50;99445.78;;;14.72;100.00
43430;BME280;29028;43.234;27.896;2022-12-10T06:26:13;99445.53;;;14.73;100.00
43430;BME280;29028;43.234;27.896;2022-12-10T06:26:34;99442.13;;;14.78;100.00
43430;BME280;29028;43.234;27.896;2022-12-10T06:26:56;99447.88;;;14.81;100.00
43430;BME280;29028;43.234;27.896;2022-12-10T06:27:16;99448.59;;;14.88;100.00
43430;BME280;29028;43.234;27.896;2022-12-10T06:27:37;99445.53;;;14.85;100.00
43430;BME280;29028;43.234;27.896;2022-12-10T06:27:58;99452.38;;;14.87;100.00
43430;BME280;29028;43.234;27.896;2022-12-10T06:28:19;99445.53;;;14.85;100.00
43430;BME280;29028;43.234;27.896;2022-12-10T06:28:41;99444.13;;;14.82;100.00
43430;BME280;29028;43.234;27.896;2022-12-10T06:29:04;99453.88;;;14.83;100.00
43430;BME280;29028;43.234;27.896;2022-12-10T06:29:25;99454.38;;;14.80;100.00
43430;BME280;29028;43.234;27.896;2022-12-10T06:29:46;99448.34;;;14.78;100.00
43430;BME280;29028;43.234;27.896;2022-12-10T06:30:09;99449.75;;;14.81;100.00
43430;BME280;29028;43.234;27.896;2022-12-10T06:30:30;99444.59;;;14.79;100.00
43430;BME280;29028;43.234;27.896;2022-12-10T06:30:50;99442.13;;;14.78;100.00
43430;BME280;29028;43.234;27.896;2022-12-10T06:31:11;99455.91;;;14.88;100.00
43430;BME280;29028;43.234;27.896;2022-12-10T06:31:32;99449.53;;;14.82;100.00
43430;BME280;29028;43.234;27.896;2022-12-10T06:31:54;99450.38;;;14.83;100.00
43430;BME280;29028;43.234;27.896;2022-12-10T06:32:15;99449.31;;;14.84;100.00
43430;BME280;29028;43.234;27.896;2022-12-10T06:32:37;99453.56;;;14.91;100.00
43430;BME280;29028;43.234;27.896;2022-12-10T06:32:58;99451.31;;;14.88;100.00
43430;BME280;29028;43.234;27.896;2022-12-10T06:33:23;99454.63;;;14.90;100.00
43430;BME280;29028;43.234;27.896;2022-12-10T06:33:43;99443.19;;;15.00;100.00
43430;BME280;29028;43.234;27.896;2022-12-10T06:34:04;99442.47;;;15.04;100.00
43430;BME280;29028;43.234;27.896;2022-12-10T06:34:26;99452.97;;;15.01;100.00
43430;BME280;29028;43.234;27.896;2022-12-10T06:34:48;99443.41;;;14.98;100.00
43430;BME280;29028;43.234;27.896;2022-12-10T06:35:10;99444.13;;;14.94;100.00
43430;BME280;29028;43.234;27.896;2022-12-10T06:35:31;99449.31;;;14.95;100.00
43430;BME280;29028;43.234;27.896;2022-12-10T06:35:52;99447.28;;;14.91;100.00
43430;BME280;29028;43.234;27.896;2022-12-10T06:36:15;99446.00;;;14.93;100.00
43430;BME280;29028;43.234;27.896;2022-12-10T06:36:36;99446.50;;;14.90;100.00
43430;BME280;29028;43.234;27.896;2022-12-10T06:36:57;99447.28;;;14.91;100.00
43430;BME280;29028;43.234;27.896;2022-12-10T06:37:17;99446.84;;;14.94;100.00
43430;BME280;29028;43.234;27.896;2022-12-10T06:37:39;99443.53;;;14.92;100.00
43430;BME280;29028;43.234;27.896;2022-12-10T06:38:00;99444.00;;;14.89;100.00
43430;BME280;29028;43.234;27.896;2022-12-10T06:38:21;99441.19;;;14.95;100.00
43430;BME280;29028;43.234;27.896;2022-12-10T06:38:42;99442.94;;;14.90;100.00
43430;BME280;29028;43.234;27.896;2022-12-10T06:39:03;99440.34;;;14.83;100.00
43430;BME280;29028;43.234;27.896;2022-12-10T06:39:25;99449.06;;;14.85;100.00
43430;BME280;29028;43.234;27.896;2022-12-10T06:39:46;99444.22;;;14.87;100.00
43430;BME280;29028;43.234;27.896;2022-12-10T06:40:10;99448.34;;;14.90;100.00
43430;BME280;29028;43.234;27.896;2022-12-10T06:40:31;99452.25;;;14.94;100.00
43430;BME280;29028;43.234;27.896;2022-12-10T06:40:52;99441.19;;;14.95;100.00
43430;BME280;29028;43.234;27.896;2022-12-10T06:41:15;99445.88;;;15.00;100.00
43430;BME280;29028;43.234;27.896;2022-12-10T06:41:36;99446.69;;;15.00;100.00
43430;BME280;29028;43.234;27.896;2022-12-10T06:41:57;99448.38;;;15.01;100.00
43430;BME280;29028;43.234;27.896;2022-12-10T06:42:18;99446.81;;;15.05;100.00
43430;BME280;29028;43.234;27.896;2022-12-10T06:42:40;99447.06;;;15.04;100.00
43430;BME280;29028;43.234;27.896;2022-12-10T06:43:00;99438.22;;;15.08;100.00
43430;BME280;29028;43.234;27.896;2022-12-10T06:43:21;99454.94;;;15.05;100.00
43430;BME280;29028;43.234;27.896;2022-12-10T06:43:42;99447.06;;;15.04;100.00
43430;BME280;29028;43.234;27.896;2022-12-10T06:44:06;99449.41;;;15.00;100.00
43430;BME280;29028;43.234;27.896;2022-12-10T06:44:30;99439.78;;;14.93;100.00
43430;BME280;29028;43.234;27.896;2022-12-10T06:44:51;99456.38;;;14.96;100.00
43430;BME280;29028;43.234;27.896;2022-12-10T06:45:14;99450.25;;;15.01;100.00
43430;BME280;29028;43.234;27.896;2022-12-10T06:45:38;99453.44;;;14.98;100.00
43430;BME280;29028;43.234;27.896;2022-12-10T06:46:04;99448.03;;;14.98;100.00
43430;BME280;29028;43.234;27.896;2022-12-10T06:46:26;99452.97;;;15.01;100.00
43430;BME280;29028;43.234;27.896;2022-12-10T06:46:48;99451.66;;;15.03;100.00
43430;BME280;29028;43.234;27.896;2022-12-10T06:47:10;99454.38;;;15.03;100.00
43430;BME280;29028;43.234;27.896;2022-12-10T06:47:30;99447.53;;;15.01;100.00
43430;BME280;29028;43.234;27.896;2022-12-10T06:47:52;99445.31;;;14.98;100.00
43430;BME280;29028;43.234;27.896;2022-12-10T06:48:13;99447.41;;;14.96;100.00
43430;BME280;29028;43.234;27.896;2022-12-10T06:48:35;99436.56;;;14.96;100.00
43430;BME280;29028;43.234;27.896;2022-12-10T06:48:56;99441.03;;;15.02;100.00
43430;BME280;29028;43.234;27.896;2022-12-10T06:49:17;99447.53;;;15.01;100.00
43430;BME280;29028;43.234;27.896;2022-12-10T06:49:38;99447.53;;;15.01;100.00
43430;BME280;29028;43.234;27.896;2022-12-10T06:49:59;99446.25;;;15.03;100.00
43430;BME280;29028;43.234;27.896;2022-12-10T06:50:19;99450.38;;;15.06;100.00
43430;BME280;29028;43.234;27.896;2022-12-10T06:50:41;99444.94;;;15.06;100.00
43430;BME280;29028;43.234;27.896;2022-12-10T06:51:02;99444.22;;;15.10;100.00
43430;BME280;29028;43.234;27.896;2022-12-10T06:51:23;99457.66;;;15.17;100.00
43430;BME280;29028;43.234;27.896;2022-12-10T06:51:44;99451.31;;;15.11;100.00
43430;BME280;29028;43.234;27.896;2022-12-10T06:52:06;99449.06;;;15.08;100.00
43430;BME280;29028;43.234;27.896;2022-12-10T06:52:27;99448.84;;;15.10;100.00
43430;BME280;29028;43.234;27.896;2022-12-10T06:52:49;99450.47;;;15.11;100.00
43430;BME280;29028;43.234;27.896;2022-12-10T06:53:11;99447.88;;;15.16;100.00
43430;BME280;29028;43.234;27.896;2022-12-10T06:53:32;99451.31;;;15.11;100.00
43430;BME280;29028;43.234;27.896;2022-12-10T06:53:55;99451.91;;;15.13;100.00